Dry Fork, Utah
Current Conditions -  °F | °C
As of 10:01 PM on Friday 19 Dec 2014 (Local Time) from KVEL Reporting Station
Overcast Overcast  
Wind Chill: 27°   Ceiling: 11000
Heat Index: 27°   Visibility: 8mi
Dew Point: 23°   Wind: 0mph
Humidity: 85%   Direction: NA
Pressure: 30.2"   Gusts: NA
Location:  40.1055°N, 109.498°W
Report Text: KVEL 200501Z AUTO 00000KT 8SM SCT021 OVC110 M03/M05 A3020 RMK AO2 T10281050
Loading
Personal Weather Stations






























Interactive Weather Map New forecast layout! Learn more

10-Day Weather Forecast

Advertisements
Track Severe Weather on mobile